Terminal Aerodrome Forecast
Issued by NWS

Home | Current Version | Previous Version | Text Only | Print | Product List | Glossary On
Versions: 1 2 3 4 5 6 7 8 9 10 11 12 13 14
000
FTAK31 PAFA 011134
TAFAFA
TAF
PAFA 011134Z 0112/0218 VRB05KT P6SM FEW070 BKN110
     FM012000 20005KT P6SM SCT060 SCT100 BKN250
     FM020500 VRB02KT P6SM SCT100 BKN250=

USA.gov is the U.S. government's official web portal to all federal, state and local government web resources and services.